Time;durP1;ratioP1;P1;durP2;ratioP2;P2;SDS_P1;SDS_P2;PMS_P1;PMS_P2;Temp;Humidity;BMP_temperature;BMP_pressure;BME280_temperature;BME280_humidity;BME280_pressure;Samples;Min_cycle;Max_cycle;Signal;HPM_P1;HPM_P2
2023/12/30 00:01:22;;;;;;;13.35;4.30;;;;;;;6.82;100.00;100820.06;5284971;28;20068;-74
2023/12/30 00:03:53;;;;;;;8.40;3.30;;;;;;;6.74;100.00;100804.47;5284863;28;20056;-75
2023/12/30 00:06:24;;;;;;;19.33;3.67;;;;;;;6.70;100.00;100811.38;5285249;28;20454;-74
2023/12/30 00:08:56;;;;;;;14.33;3.10;;;;;;;6.76;100.00;100823.47;5284979;28;20072;-74
2023/12/30 00:11:27;;;;;;;14.47;3.70;;;;;;;6.82;100.00;100823.50;5284952;28;20032;-73
2023/12/30 00:13:58;;;;;;;14.07;3.90;;;;;;;6.84;100.00;100826.09;5284638;28;20040;-74
2023/12/30 00:16:30;;;;;;;17.50;3.73;;;;;;;6.75;100.00;100821.75;5284435;28;20028;-74
2023/12/30 00:19:01;;;;;;;14.30;3.70;;;;;;;6.81;100.00;100826.09;5284789;28;20029;-73
2023/12/30 00:21:33;;;;;;;10.73;3.17;;;;;;;6.82;100.00;100828.69;5284594;28;20056;-73
2023/12/30 00:24:04;;;;;;;12.20;3.13;;;;;;;6.77;100.00;100830.41;5284489;28;20028;-73
2023/12/30 00:26:36;;;;;;;8.47;3.40;;;;;;;6.71;100.00;100832.97;5284641;28;20106;-74
2023/12/30 00:29:07;;;;;;;16.47;4.20;;;;;;;6.69;100.00;100837.28;5284775;28;20037;-74
2023/12/30 00:31:39;;;;;;;13.10;3.47;;;;;;;6.69;100.00;100843.31;5284418;28;20062;-74
2023/12/30 00:34:10;;;;;;;13.33;4.13;;;;;;;6.80;100.00;100852.88;5266358;28;20068;-74
2023/12/30 00:36:45;;;;;;;11.30;3.03;;;;;;;6.71;100.00;100851.09;5284673;28;20025;-73
2023/12/30 00:39:16;;;;;;;13.27;3.55;;;;;;;6.73;100.00;100854.59;5284036;28;20055;-74
2023/12/30 00:41:48;;;;;;;13.47;2.87;;;;;;;6.64;100.00;100854.53;5282289;28;20040;-74
2023/12/30 00:44:19;;;;;;;12.37;4.27;;;;;;;6.64;100.00;100864.91;5284245;28;20040;-74
2023/12/30 00:46:51;;;;;;;11.40;3.63;;;;;;;6.74;100.00;100861.47;5284024;28;20037;-73
2023/12/30 00:49:22;;;;;;;11.40;2.87;;;;;;;6.78;100.00;100865.81;5284209;28;20032;-75
2023/12/30 00:51:53;;;;;;;14.10;3.50;;;;;;;6.67;100.00;100854.56;5282563;28;20166;-75
2023/12/30 00:54:25;;;;;;;15.17;3.83;;;;;;;6.56;100.00;100863.13;5284133;28;20192;-75
2023/12/30 00:56:56;;;;;;;11.10;2.67;;;;;;;6.63;100.00;100865.75;5284029;28;20094;-75
2023/12/30 00:59:27;;;;;;;12.67;3.47;;;;;;;6.59;100.00;100876.97;5283740;28;20032;-75
2023/12/30 01:01:59;;;;;;;13.40;3.43;;;;;;;6.66;100.00;100876.97;5282411;28;20044;-74
2023/12/30 01:04:31;;;;;;;13.13;3.23;;;;;;;6.64;100.00;100880.44;5283264;28;20118;-75
2023/12/30 01:07:02;;;;;;;13.33;3.70;;;;;;;6.76;100.00;100877.88;5283445;28;20745;-75
2023/12/30 01:09:34;;;;;;;13.17;3.53;;;;;;;6.71;100.00;100879.59;5283490;28;20111;-75
2023/12/30 01:12:05;;;;;;;11.47;4.43;;;;;;;6.61;100.00;100875.25;5283890;28;20064;-75
2023/12/30 01:14:37;;;;;;;14.00;3.43;;;;;;;6.65;100.00;100879.56;5283228;28;20028;-74
2023/12/30 01:17:08;;;;;;;13.80;2.90;;;;;;;6.70;100.00;100880.47;5283366;28;20055;-75
2023/12/30 01:19:39;;;;;;;12.30;4.20;;;;;;;6.75;100.00;100887.38;5283688;28;20028;-74
2023/12/30 01:22:11;;;;;;;12.87;3.37;;;;;;;6.82;100.00;100885.69;5283251;28;20111;-75
2023/12/30 01:24:42;;;;;;;11.23;3.23;;;;;;;6.82;100.00;100896.06;5283208;28;20182;-75
2023/12/30 01:27:14;;;;;;;13.73;3.33;;;;;;;6.80;100.00;100896.94;5283233;28;20032;-75
2023/12/30 01:29:45;;;;;;;15.43;4.20;;;;;;;6.82;100.00;100901.22;5283144;28;20032;-74
2023/12/30 01:32:16;;;;;;;12.90;3.90;;;;;;;6.83;100.00;100908.16;5283176;28;20082;-74
2023/12/30 01:34:48;;;;;;;16.37;4.67;;;;;;;6.83;100.00;100904.72;5283120;28;20074;-74
2023/12/30 01:37:19;;;;;;;18.17;4.27;;;;;;;6.79;100.00;100921.09;5283269;28;20036;-75
2023/12/30 01:39:51;;;;;;;11.33;3.23;;;;;;;6.80;100.00;100915.06;5283515;28;20052;-74
2023/12/30 01:42:23;;;;;;;15.88;3.88;;;;;;;6.72;100.00;100907.25;5265169;28;20356;-74
2023/12/30 01:44:54;;;;;;;16.77;3.87;;;;;;;6.66;100.00;100908.06;5282955;28;20032;-75
2023/12/30 01:47:26;;;;;;;9.77;4.00;;;;;;;6.69;100.00;100912.41;5282979;28;20146;-74
2023/12/30 01:49:58;;;;;;;14.65;4.22;;;;;;;6.66;100.00;100913.25;5281987;28;20036;-75
2023/12/30 01:52:29;;;;;;;14.23;3.50;;;;;;;6.65;100.00;100910.66;5282348;28;20036;-75
2023/12/30 01:55:02;;;;;;;12.33;3.00;;;;;;;6.71;100.00;100915.88;5281412;28;20027;-75
2023/12/30 01:57:34;;;;;;;15.00;3.60;;;;;;;6.68;100.00;100918.44;5282792;28;20132;-75
2023/12/30 02:00:06;;;;;;;14.37;4.17;;;;;;;6.61;100.00;100917.53;5281417;28;20123;-74
2023/12/30 02:02:37;;;;;;;12.73;3.65;;;;;;;6.57;100.00;100924.44;5282219;28;20095;-74
2023/12/30 02:05:09;;;;;;;14.47;3.63;;;;;;;6.67;100.00;100927.09;5264624;28;20033;-74
2023/12/30 02:07:40;;;;;;;11.50;3.60;;;;;;;6.61;100.00;100929.63;5282927;28;20060;-75
2023/12/30 02:10:12;;;;;;;12.60;3.77;;;;;;;6.61;100.00;100933.06;5282086;28;20040;-76
2023/12/30 02:12:43;;;;;;;13.83;3.17;;;;;;;6.59;100.00;100934.81;5282374;28;20135;-76
2023/12/30 02:15:17;;;;;;;18.40;4.60;;;;;;;6.57;100.00;100931.34;5281154;28;20039;-76
2023/12/30 02:17:51;;;;;;;16.55;3.40;;;;;;;6.59;100.00;100929.63;5282419;28;20031;-76
2023/12/30 02:20:23;;;;;;;12.07;3.83;;;;;;;6.67;100.00;100929.69;5282732;28;20422;-75
2023/12/30 02:22:54;;;;;;;15.53;4.80;;;;;;;6.66;100.00;100930.53;5282241;28;20028;-75
2023/12/30 02:25:26;;;;;;;12.83;3.23;;;;;;;6.83;100.00;100934.06;5281910;28;20456;-75
2023/12/30 02:27:57;;;;;;;14.13;3.23;;;;;;;6.82;100.00;100940.09;5282257;28;20039;-75
2023/12/30 02:30:28;;;;;;;18.27;5.70;;;;;;;6.81;100.00;100950.44;5282282;28;20124;-75
2023/12/30 02:33:00;;;;;;;7.77;2.47;;;;;;;6.49;100.00;100958.94;5282493;28;20095;-74
2023/12/30 02:35:31;;;;;;;9.23;3.63;;;;;;;6.12;100.00;100975.03;5282674;28;20094;-73
2023/12/30 02:38:03;;;;;;;7.37;3.23;;;;;;;5.81;100.00;100948.84;5281867;28;20025;-74
2023/12/30 02:40:35;;;;;;;10.17;3.90;;;;;;;5.77;100.00;100947.06;5282407;28;20048;-74
2023/12/30 02:43:06;;;;;;;9.95;3.80;;;;;;;5.74;100.00;100941.88;5281632;28;20091;-74
2023/12/30 02:45:38;;;;;;;26.67;7.63;;;;;;;5.90;100.00;100949.78;5282137;28;20444;-72
2023/12/30 02:48:09;;;;;;;16.77;4.60;;;;;;;5.93;100.00;100955.84;5281233;28;20416;-73
2023/12/30 02:50:40;;;;;;;15.50;4.73;;;;;;;5.95;100.00;100954.13;5280532;28;20163;-73
2023/12/30 02:53:12;;;;;;;22.30;5.80;;;;;;;5.91;100.00;100951.50;5280853;28;20082;-73
2023/12/30 02:55:43;;;;;;;19.93;4.93;;;;;;;5.83;100.00;100960.06;5280485;28;20040;-73
2023/12/30 02:58:14;;;;;;;21.83;4.93;;;;;;;5.75;100.00;100956.56;5282262;28;20028;-74
2023/12/30 03:00:46;;;;;;;18.73;4.57;;;;;;;5.74;100.00;100956.53;5281802;28;20048;-74
2023/12/30 03:03:17;;;;;;;23.27;5.03;;;;;;;5.72;100.00;100953.94;5281788;28;20032;-75
2023/12/30 03:05:48;;;;;;;22.00;4.80;;;;;;;5.64;100.00;100955.56;5285663;28;20059;-74
2023/12/30 03:08:20;;;;;;;20.00;4.63;;;;;;;5.65;100.00;100953.00;5284349;28;20028;-74
2023/12/30 03:10:51;;;;;;;19.60;5.13;;;;;;;5.64;100.00;100960.75;5285417;28;20028;-74
2023/12/30 03:13:22;;;;;;;24.33;4.90;;;;;;;5.58;100.00;100961.53;5284779;28;20142;-74
2023/12/30 03:15:54;;;;;;;16.83;4.07;;;;;;;5.62;100.00;100952.97;5285811;28;20479;-74
2023/12/30 03:18:25;;;;;;;23.33;5.03;;;;;;;5.63;100.00;100953.84;5286093;28;20032;-74
2023/12/30 03:20:57;;;;;;;24.00;4.87;;;;;;;5.58;100.00;100956.38;5285887;28;20036;-74
2023/12/30 03:23:29;;;;;;;18.35;3.95;;;;;;;5.58;100.00;100966.72;5285488;28;20066;-74
2023/12/30 03:26:00;;;;;;;22.40;4.37;;;;;;;5.51;100.00;100966.66;5285485;28;20034;-74
2023/12/30 03:28:32;;;;;;;16.77;4.47;;;;;;;5.50;100.00;100965.75;5285905;28;20167;-74
2023/12/30 03:31:04;;;;;;;17.67;3.93;;;;;;;5.53;100.00;100958.03;5285648;28;20063;-74
2023/12/30 03:33:35;;;;;;;17.57;5.40;;;;;;;5.52;100.00;100953.72;5285351;28;20476;-73
2023/12/30 03:36:07;;;;;;;17.87;4.80;;;;;;;5.49;100.00;100953.72;5284298;28;20605;-73
2023/12/30 03:38:38;;;;;;;25.83;5.30;;;;;;;5.44;100.00;100957.94;5285060;28;20025;-73
2023/12/30 03:41:09;;;;;;;16.47;3.97;;;;;;;5.45;100.00;100963.13;5284828;28;20136;-74
2023/12/30 03:43:41;;;;;;;23.03;5.43;;;;;;;5.42;100.00;100952.75;5283890;28;20068;-73
2023/12/30 03:46:12;;;;;;;21.53;5.17;;;;;;;5.40;100.00;100972.56;5285069;28;20036;-74
2023/12/30 03:48:43;;;;;;;18.57;3.50;;;;;;;5.42;100.00;100969.97;5285580;28;20025;-74
2023/12/30 03:51:15;;;;;;;19.43;4.90;;;;;;;5.38;100.00;100963.91;5284867;28;20033;-75
2023/12/30 03:53:47;;;;;;;14.13;4.00;;;;;;;5.36;100.00;100970.78;5283770;28;20037;-74
2023/12/30 03:56:18;;;;;;;23.05;4.65;;;;;;;5.29;100.00;100972.41;5285202;28;20043;-74
2023/12/30 03:58:50;;;;;;;20.87;4.27;;;;;;;5.24;100.00;100974.09;5284979;28;20138;-74
2023/12/30 04:01:23;;;;;;;22.57;4.47;;;;;;;5.25;100.00;100974.97;5285223;28;20043;-74
2023/12/30 04:03:55;;;;;;;21.92;4.68;;;;;;;5.27;100.00;100957.75;5284807;28;20047;-74
2023/12/30 04:06:26;;;;;;;22.37;5.27;;;;;;;5.27;100.00;100961.19;5284859;28;20490;-74
2023/12/30 04:08:57;;;;;;;13.57;3.50;;;;;;;5.20;100.00;100961.09;5284768;28;20025;-74
2023/12/30 04:11:29;;;;;;;22.87;4.83;;;;;;;5.18;100.00;100961.09;5284777;28;20059;-74
2023/12/30 04:14:00;;;;;;;19.73;5.40;;;;;;;5.21;100.00;100961.13;5284605;28;20039;-74
2023/12/30 04:16:31;;;;;;;16.27;4.10;;;;;;;5.20;100.00;100963.69;5284662;28;20421;-74
2023/12/30 04:19:03;;;;;;;15.37;3.80;;;;;;;5.25;100.00;100967.22;5284532;28;20115;-73
2023/12/30 04:21:34;;;;;;;15.93;3.87;;;;;;;5.21;100.00;100968.88;5284234;28;20037;-74
2023/12/30 04:24:05;;;;;;;18.53;3.17;;;;;;;5.14;100.00;100959.31;5284349;28;20056;-74
2023/12/30 04:26:37;;;;;;;19.77;4.50;;;;;;;5.10;100.00;100961.00;5284423;28;20142;-73
2023/12/30 04:29:09;;;;;;;18.80;3.17;;;;;;;5.01;100.00;100968.63;5284396;28;20040;-74
2023/12/30 04:31:41;;;;;;;17.13;4.38;;;;;;;5.04;100.00;100962.63;5283997;28;20055;-74
2023/12/30 04:34:12;;;;;;;19.23;3.83;;;;;;;5.10;100.00;100971.34;5282965;28;20044;-74
2023/12/30 04:36:43;;;;;;;16.20;4.97;;;;;;;5.11;100.00;100967.91;5284056;28;20028;-74
2023/12/30 04:39:15;;;;;;;21.17;4.50;;;;;;;5.05;100.00;100975.56;5284502;28;20111;-73
2023/12/30 04:41:46;;;;;;;28.30;4.50;;;;;;;5.10;100.00;100970.47;5284618;28;20044;-74
2023/12/30 04:44:17;;;;;;;18.07;4.27;;;;;;;5.07;100.00;100973.00;5283940;28;20025;-74
2023/12/30 04:46:49;;;;;;;25.40;6.53;;;;;;;5.06;100.00;100963.53;5284133;28;20032;-74
2023/12/30 04:49:20;;;;;;;22.13;7.00;;;;;;;5.07;100.00;100976.47;5283723;28;20083;-74
2023/12/30 04:51:51;;;;;;;21.70;4.50;;;;;;;5.06;100.00;100966.13;5284215;28;20090;-74
2023/12/30 04:54:25;;;;;;;15.77;4.00;;;;;;;5.08;100.00;100969.59;5282348;28;20080;-73
2023/12/30 04:56:57;;;;;;;23.80;5.00;;;;;;;5.06;100.00;100984.22;5283408;28;20035;-74
2023/12/30 04:59:28;;;;;;;24.43;5.43;;;;;;;5.09;100.00;100979.94;5284299;28;20348;-74
2023/12/30 05:01:59;;;;;;;30.87;5.37;;;;;;;5.03;100.00;100985.03;5283503;28;20064;-74
2023/12/30 05:04:31;;;;;;;22.03;4.23;;;;;;;5.07;100.00;100991.97;5283832;28;20600;-74
2023/12/30 05:07:02;;;;;;;24.93;4.60;;;;;;;5.13;100.00;100992.91;5283943;28;20048;-74
2023/12/30 05:09:35;;;;;;;22.93;5.43;;;;;;;5.09;100.00;100997.16;5283406;28;20035;-74
2023/12/30 05:12:06;;;;;;;;;;;;;;;5.08;100.00;101001.44;5282370;28;20024;-74
2023/12/30 05:14:38;;;;;;;17.90;4.30;;;;;;;5.12;100.00;100997.22;5283051;28;19915;-75
2023/12/30 05:17:09;;;;;;;32.90;6.23;;;;;;;5.15;100.00;100998.94;5283278;28;20028;-74
2023/12/30 05:19:40;;;;;;;29.60;6.07;;;;;;;5.07;100.00;100996.25;5282983;28;20039;-74
2023/12/30 05:22:12;;;;;;;18.27;4.97;;;;;;;5.11;100.00;101011.81;5283670;28;20487;-74
2023/12/30 05:24:43;;;;;;;23.17;4.73;;;;;;;5.08;100.00;101014.38;5283185;28;20134;-73
2023/12/30 05:27:14;;;;;;;26.67;4.73;;;;;;;5.10;100.00;101014.38;5282550;28;20024;-74
2023/12/30 05:29:46;;;;;;;18.47;4.37;;;;;;;5.03;100.00;101013.44;5281718;28;20058;-74
2023/12/30 05:32:17;;;;;;;26.47;6.73;;;;;;;5.02;100.00;101009.09;5282281;28;20112;-74
2023/12/30 05:34:48;;;;;;;32.63;4.83;;;;;;;4.99;100.00;101016.84;5283274;28;20341;-75
2023/12/30 05:37:20;;;;;;;19.13;4.40;;;;;;;5.13;100.00;101003.25;5281547;28;20208;-74
2023/12/30 05:39:51;;;;;;;23.47;5.50;;;;;;;5.09;100.00;101023.88;5282623;28;20387;-74
2023/12/30 05:42:22;;;;;;;22.67;4.17;;;;;;;5.08;100.00;101021.25;5282672;28;20020;-74
2023/12/30 05:44:54;;;;;;;17.67;4.60;;;;;;;5.03;100.00;101023.78;5282900;28;20154;-74
2023/12/30 05:47:25;;;;;;;26.53;5.87;;;;;;;5.18;100.00;101024.84;5282838;28;20028;-74
2023/12/30 05:49:56;;;;;;;21.63;6.20;;;;;;;5.10;100.00;101025.63;5282537;28;20082;-74
2023/12/30 05:52:28;;;;;;;20.33;4.87;;;;;;;5.01;100.00;101024.63;5265033;28;20028;-75
2023/12/30 05:54:59;;;;;;;27.07;6.70;;;;;;;5.06;100.00;101033.31;5282462;28;20025;-74
2023/12/30 05:57:32;;;;;;;28.13;5.63;;;;;;;5.11;100.00;101029.91;5282470;28;20402;-74
2023/12/30 06:00:04;;;;;;;26.63;5.78;;;;;;;5.12;100.00;101033.38;5282601;28;20028;-75
2023/12/30 06:02:35;;;;;;;23.40;5.45;;;;;;;5.06;100.00;101038.47;5282677;28;20402;-74
2023/12/30 06:05:07;;;;;;;15.90;5.10;;;;;;;5.02;100.00;101034.09;5281466;28;20103;-75
2023/12/30 06:07:38;;;;;;;20.77;5.57;;;;;;;5.04;100.00;101035.88;5282533;28;20051;-74
2023/12/30 06:10:09;;;;;;;24.27;4.90;;;;;;;5.06;100.00;101031.56;5282678;28;20467;-74
2023/12/30 06:12:41;;;;;;;15.80;4.13;;;;;;;4.99;100.00;101046.97;5282213;28;20107;-74
2023/12/30 06:15:12;;;;;;;22.43;4.50;;;;;;;4.92;100.00;101049.44;5282679;28;20093;-73
2023/12/30 06:17:44;;;;;;;22.83;5.10;;;;;;;4.89;100.00;101043.38;5283098;28;20395;-74
2023/12/30 06:20:15;;;;;;;30.43;6.67;;;;;;;4.85;100.00;101045.06;5282771;28;20081;-74
2023/12/30 06:22:47;;;;;;;24.93;5.17;;;;;;;4.90;100.00;101045.13;5282499;28;20519;-73
2023/12/30 06:25:18;;;;;;;21.80;5.03;;;;;;;4.85;100.00;101054.53;5282766;28;20031;-74
2023/12/30 06:27:49;;;;;;;23.57;4.37;;;;;;;4.86;100.00;101056.25;5282751;28;20024;-74
2023/12/30 06:30:21;;;;;;;17.63;4.43;;;;;;;4.90;100.00;101063.22;5282388;28;20108;-74
2023/12/30 06:32:52;;;;;;;20.23;5.20;;;;;;;4.90;100.00;101069.22;5282312;28;20078;-74
2023/12/30 06:35:23;;;;;;;21.13;3.97;;;;;;;4.84;100.00;101066.56;5282465;28;20185;-74
2023/12/30 06:37:55;;;;;;;23.30;5.97;;;;;;;4.83;100.00;101070.00;5282332;28;20037;-74
2023/12/30 06:40:27;;;;;;;18.63;4.97;;;;;;;4.89;100.00;101070.09;5285579;28;20044;-74
2023/12/30 06:42:58;;;;;;;19.10;4.10;;;;;;;4.93;100.00;101065.84;5286668;28;20111;-75
2023/12/30 06:45:30;;;;;;;22.60;4.27;;;;;;;4.94;100.00;101067.56;5286527;28;20036;-75
2023/12/30 06:48:01;;;;;;;24.47;5.43;;;;;;;4.99;100.00;101067.63;5286546;28;20028;-75
2023/12/30 06:50:33;;;;;;;24.57;4.10;;;;;;;5.06;100.00;101067.75;5286914;28;20031;-74
2023/12/30 06:53:04;;;;;;;17.30;5.17;;;;;;;5.03;100.00;101056.50;5284969;28;20036;-74
2023/12/30 06:55:35;;;;;;;20.23;4.80;;;;;;;4.97;100.00;101053.84;5286229;28;20436;-75
2023/12/30 06:58:08;;;;;;;17.00;3.87;;;;;;;5.01;100.00;101055.63;5286310;28;20024;-74
2023/12/30 07:00:39;;;;;;;15.73;4.32;;;;;;;5.01;100.00;101055.63;5285913;28;20405;-74
2023/12/30 07:03:11;;;;;;;19.10;3.93;;;;;;;5.01;100.00;101059.06;5286029;28;20119;-74
2023/12/30 07:05:42;;;;;;;23.20;4.90;;;;;;;5.08;100.00;101053.13;5286085;28;20016;-74
2023/12/30 07:08:14;;;;;;;22.70;4.90;;;;;;;5.11;100.00;101053.16;5285758;28;20021;-75
2023/12/30 07:10:45;;;;;;;18.53;3.87;;;;;;;5.06;100.00;101057.41;5285302;28;20396;-74
2023/12/30 07:13:16;;;;;;;17.43;3.40;;;;;;;5.13;100.00;101062.66;5285880;28;20029;-74
2023/12/30 07:15:50;;;;;;;21.60;4.10;;;;;;;5.17;100.00;101069.59;5286075;28;20094;-73
2023/12/30 07:18:21;;;;;;;19.67;3.72;;;;;;;5.17;100.00;101074.78;5285674;28;20039;-73
2023/12/30 07:20:52;;;;;;;18.53;4.83;;;;;;;5.18;100.00;101076.53;5285841;28;20029;-73
2023/12/30 07:23:24;;;;;;;20.27;6.23;;;;;;;5.19;100.00;101076.53;5285429;28;20025;-71
2023/12/30 07:25:55;;;;;;;17.10;3.60;;;;;;;5.17;100.00;101078.25;5285380;28;20028;-75
2023/12/30 07:28:26;;;;;;;18.97;3.57;;;;;;;5.14;100.00;101082.50;5284054;28;20425;-77
2023/12/30 07:30:58;;;;;;;23.73;5.10;;;;;;;5.14;100.00;101078.19;5286061;28;20032;-77
2023/12/30 07:33:29;;;;;;;15.97;3.47;;;;;;;5.13;100.00;101073.00;5285204;28;20107;-76
2023/12/30 07:36:03;;;;;;;15.63;4.30;;;;;;;5.19;100.00;101080.84;5285485;28;20078;-77
2023/12/30 07:38:35;;;;;;;23.05;5.03;;;;;;;5.25;100.00;101078.38;5285369;28;20483;-76
2023/12/30 07:41:06;;;;;;;23.60;4.70;;;;;;;5.28;100.00;101080.97;5283842;28;20052;-77
2023/12/30 07:43:38;;;;;;;12.43;3.07;;;;;;;5.23;100.00;101082.63;5284339;28;20033;-77
2023/12/30 07:46:09;;;;;;;22.70;4.50;;;;;;;5.24;100.00;101086.94;5284213;28;20044;-76
2023/12/30 07:48:43;;;;;;;15.97;4.80;;;;;;;5.24;100.00;101089.53;5282103;28;20115;-76
2023/12/30 07:51:14;;;;;;;18.98;5.40;;;;;;;5.24;100.00;101092.13;5283554;28;20036;-76
2023/12/30 07:53:45;;;;;;;17.97;4.90;;;;;;;5.21;100.00;101082.59;5283835;28;20038;-77
2023/12/30 07:56:17;;;;;;;24.10;4.73;;;;;;;5.16;100.00;101094.59;5283743;28;20024;-76
2023/12/30 07:58:48;;;;;;;16.50;4.17;;;;;;;5.16;100.00;101101.47;5283389;28;20040;-77
2023/12/30 08:01:19;;;;;;;17.13;4.30;;;;;;;5.14;100.00;101101.47;5283850;28;20071;-77
2023/12/30 08:03:51;;;;;;;20.07;5.40;;;;;;;5.19;100.00;101117.91;5283678;28;20036;-77
2023/12/30 08:06:22;;;;;;;16.07;4.00;;;;;;;5.16;100.00;101117.84;5284174;28;20037;-77
2023/12/30 08:08:54;;;;;;;21.97;6.03;;;;;;;5.21;100.00;101123.94;5266241;28;20029;-78
2023/12/30 08:11:25;;;;;;;19.03;3.83;;;;;;;5.25;100.00;101127.47;5285350;28;20111;-78
2023/12/30 08:13:57;;;;;;;26.20;5.53;;;;;;;5.32;100.00;101128.41;5283205;28;20074;-78
2023/12/30 08:16:28;;;;;;;18.23;4.47;;;;;;;5.39;100.00;101117.31;5283070;28;20073;-77
2023/12/30 08:19:00;;;;;;;19.90;4.73;;;;;;;5.42;100.00;101120.78;5283404;28;20036;-77
2023/12/30 08:21:31;;;;;;;18.83;4.83;;;;;;;5.52;100.00;101120.94;5281802;28;20036;-78
2023/12/30 08:24:03;;;;;;;16.83;4.00;;;;;;;5.55;100.00;101118.38;5283601;28;20442;-77
2023/12/30 08:26:35;;;;;;;19.83;4.88;;;;;;;5.59;100.00;101122.75;5283590;28;20440;-77
2023/12/30 08:29:08;;;;;;;30.53;5.97;;;;;;;5.64;100.00;101127.13;5281880;28;20091;-77
2023/12/30 08:31:45;;;;;;;21.10;3.88;;;;;;;5.66;100.00;101130.59;5283399;28;20032;-77
2023/12/30 08:34:16;;;;;;;22.25;4.57;;;;;;;5.72;100.00;101121.19;5283773;28;20063;-77
2023/12/30 08:36:48;;;;;;;24.33;7.13;;;;;;;5.79;100.00;101123.00;5281357;28;20046;-78
2023/12/30 08:39:19;;;;;;;19.17;4.70;;;;;;;5.89;100.00;101127.41;5283319;28;20032;-77
2023/12/30 08:41:52;;;;;;;20.80;6.67;;;;;;;5.93;100.00;101118.88;5245202;28;1109801;-78
2023/12/30 08:44:23;;;;;;;19.90;5.55;;;;;;;5.91;100.00;101117.97;5283222;28;20193;-79
2023/12/30 08:46:54;;;;;;;23.73;5.83;;;;;;;5.94;100.00;101115.44;5284097;28;20029;-77
2023/12/30 08:49:26;;;;;;;21.20;5.77;;;;;;;5.93;100.00;101121.44;5283980;28;20421;-77
2023/12/30 08:51:58;;;;;;;18.40;5.10;;;;;;;5.97;100.00;101120.69;5289563;28;20476;-78
2023/12/30 08:54:31;;;;;;;25.13;4.93;;;;;;;6.00;100.00;101130.19;5283964;28;20032;-78
2023/12/30 08:57:02;;;;;;;17.35;4.80;;;;;;;6.04;100.00;101119.03;5283757;28;20043;-78
2023/12/30 08:59:33;;;;;;;15.43;4.57;;;;;;;6.08;100.00;101122.50;5284171;28;20029;-78
2023/12/30 09:02:05;;;;;;;19.63;5.67;;;;;;;6.14;100.00;101131.22;5282993;28;20028;-78
2023/12/30 09:04:37;;;;;;;16.80;4.70;;;;;;;6.21;100.00;101126.97;5284450;28;20039;-77
2023/12/30 09:07:08;;;;;;;17.27;5.30;;;;;;;6.23;100.00;101127.88;5283559;28;20036;-78
2023/12/30 09:09:41;;;;;;;20.17;4.77;;;;;;;6.27;100.00;101132.22;5284090;28;20034;-77
2023/12/30 09:12:12;;;;;;;24.13;5.22;;;;;;;6.30;100.00;101137.41;5282065;28;20475;-78
2023/12/30 09:14:43;;;;;;;19.17;4.80;;;;;;;6.34;100.00;101139.19;5283383;28;20033;-78
2023/12/30 09:17:15;;;;;;;23.53;6.30;;;;;;;6.37;100.00;101146.97;5283065;28;20021;-78
2023/12/30 09:19:46;;;;;;;22.47;5.13;;;;;;;6.41;100.00;101153.06;5282144;28;20123;-78
2023/12/30 09:22:19;;;;;;;13.90;4.13;;;;;;;6.42;100.00;101153.94;5283392;28;20029;-78
2023/12/30 09:24:50;;;;;;;17.02;5.47;;;;;;;6.43;100.00;101151.38;5283382;28;20533;-78
2023/12/30 09:27:22;;;;;;;17.70;5.50;;;;;;;6.48;100.00;101154.00;5283143;28;20028;-78
2023/12/30 09:29:53;;;;;;;29.08;6.55;;;;;;;6.49;100.00;101163.53;5283574;28;20131;-78
2023/12/30 09:32:25;;;;;;;21.80;6.57;;;;;;;6.52;100.00;101173.88;5283108;28;20476;-78
2023/12/30 09:34:56;;;;;;;18.97;5.17;;;;;;;6.57;100.00;101170.50;5283353;28;20090;-77
2023/12/30 09:37:28;;;;;;;17.83;5.37;;;;;;;6.62;100.00;101165.38;5283536;28;20036;-78
2023/12/30 09:39:59;;;;;;;21.93;4.63;;;;;;;6.73;100.00;101173.25;5281443;28;20024;-77
2023/12/30 09:42:31;;;;;;;20.40;5.07;;;;;;;6.78;100.00;101168.97;5282571;28;20146;-77
2023/12/30 09:45:03;;;;;;;17.50;6.00;;;;;;;6.81;100.00;101169.00;5282991;28;20028;-77
2023/12/30 09:47:36;;;;;;;18.07;7.10;;;;;;;6.85;100.00;101169.88;5282686;28;20472;-78
2023/12/30 09:50:07;;;;;;;;;;;;;;;6.94;100.00;101173.44;5283029;28;20279;-78
2023/12/30 09:52:38;;;;;;;19.92;5.93;;;;;;;6.92;100.00;101177.72;5282076;28;19954;-78
2023/12/30 09:55:10;;;;;;;20.67;6.17;;;;;;;6.98;100.00;101183.81;5282707;28;20068;-75
2023/12/30 09:57:41;;;;;;;26.00;8.43;;;;;;;7.01;100.00;101168.28;5283427;28;20021;-78
2023/12/30 10:00:16;;;;;;;17.40;6.55;;;;;;;7.02;100.00;101160.53;5284368;28;20064;-74
2023/12/30 10:02:48;;;;;;;22.85;5.80;;;;;;;7.05;100.00;101165.75;5286884;28;20027;-77
2023/12/30 10:05:19;;;;;;;18.57;5.77;;;;;;;7.10;100.00;101165.78;5282795;28;20460;-77
2023/12/30 10:07:52;;;;;;;30.47;7.60;;;;;;;7.15;100.00;101170.97;5282805;28;20042;-77
2023/12/30 10:10:54;;;;;;;;;;;;;;;7.20;100.00;101167.56;5283150;28;20032;-78
2023/12/30 10:13:27;;;;;;;22.13;6.43;;;;;;;7.19;100.00;101165.81;5277593;28;19908;-78
2023/12/30 10:16:02;;;;;;;23.58;6.30;;;;;;;7.25;100.00;101170.19;5282616;28;20464;-78
2023/12/30 10:18:37;;;;;;;19.75;6.07;;;;;;;7.27;100.00;101177.13;5281191;28;20025;-79
2023/12/30 10:21:08;;;;;;;20.80;6.00;;;;;;;7.30;100.00;101181.47;5280995;28;20125;-78
2023/12/30 10:23:40;;;;;;;24.23;6.77;;;;;;;7.37;100.00;101184.97;5285168;28;20519;-78
2023/12/30 10:26:12;;;;;;;25.73;8.27;;;;;;;7.38;100.00;101184.97;5281128;28;20025;-78
2023/12/30 10:28:44;;;;;;;19.93;5.53;;;;;;;7.40;100.00;101179.81;5282650;28;20035;-78
2023/12/30 10:31:16;;;;;;;24.42;6.28;;;;;;;7.44;100.00;101184.19;5281151;28;20058;-78
2023/12/30 10:33:48;;;;;;;19.60;6.20;;;;;;;7.44;100.00;101181.56;5282261;28;20029;-78
2023/12/30 10:36:20;;;;;;;22.37;6.70;;;;;;;7.49;100.00;101193.69;5282336;28;20083;-77
2023/12/30 10:38:53;;;;;;;18.77;5.67;;;;;;;7.51;100.00;101183.34;5282226;28;20024;-77
2023/12/30 10:41:26;;;;;;;25.08;7.15;;;;;;;7.50;100.00;101199.75;5282137;28;20391;-77
2023/12/30 10:43:58;;;;;;;21.90;6.22;;;;;;;7.53;100.00;101197.19;5283191;28;20035;-77
2023/12/30 10:46:29;;;;;;;21.07;5.90;;;;;;;7.56;100.00;101186.81;5282082;28;20464;-77
2023/12/30 10:49:03;;;;;;;18.87;5.50;;;;;;;7.63;100.00;101188.63;5282181;28;20040;-77
2023/12/30 10:51:38;;;;;;;17.65;5.88;;;;;;;7.70;100.00;101196.44;5282586;28;20037;-78
2023/12/30 10:54:15;;;;;;;17.60;5.50;;;;;;;7.73;100.00;101192.13;5282652;28;20437;-77
2023/12/30 10:56:57;;;;;;;28.45;6.95;;;;;;;7.82;100.00;101178.31;5282652;28;20344;-78
2023/12/30 10:59:29;;;;;;;17.45;6.68;;;;;;;7.82;100.00;101180.91;5282723;28;20411;-78
2023/12/30 11:02:02;;;;;;;22.42;5.68;;;;;;;7.89;100.00;101179.19;5282523;28;20036;-77
2023/12/30 11:04:34;;;;;;;22.83;5.80;;;;;;;7.88;100.00;101170.56;5281055;28;20029;-77
2023/12/30 11:07:10;;;;;;;24.27;6.83;;;;;;;7.93;100.00;101178.38;5282530;28;20145;-77
2023/12/30 11:09:42;;;;;;;18.52;5.40;;;;;;;7.95;100.00;101167.16;5282930;28;20082;-78
2023/12/30 11:12:14;;;;;;;18.25;6.20;;;;;;;8.03;100.00;101156.78;5280933;28;20495;-77
2023/12/30 11:14:48;;;;;;;16.57;5.20;;;;;;;8.11;100.00;101154.19;5281015;28;20063;-78
2023/12/30 11:17:33;;;;;;;18.13;5.65;;;;;;;8.29;100.00;101151.69;5282148;28;20036;-78
2023/12/30 11:20:32;;;;;;;17.55;5.53;;;;;;;8.48;100.00;101162.97;5282701;28;20486;-77
2023/12/30 11:23:03;;;;;;;14.75;5.80;;;;;;;8.50;100.00;101163.88;5279664;28;20337;-77
2023/12/30 11:25:43;;;;;;;28.03;11.20;;;;;;;8.56;100.00;101163.00;5283293;28;20094;-77
2023/12/30 11:28:18;;;;;;;20.83;10.02;;;;;;;8.61;100.00;101153.47;5285660;28;20032;-78
2023/12/30 11:30:57;;;;;;;20.20;7.70;;;;;;;8.66;100.00;101148.28;5285916;28;20031;-77
2023/12/30 11:33:29;;;;;;;19.83;6.68;;;;;;;8.69;100.00;101143.94;5285326;28;20043;-76
2023/12/30 11:36:03;;;;;;;21.70;6.73;;;;;;;8.81;100.00;101152.66;5285182;28;20064;-78
2023/12/30 11:38:37;;;;;;;23.45;7.05;;;;;;;8.66;100.00;101138.78;5286013;28;20055;-77